KPSP/PSP METAR and TAF weather

Enter ICAO airport designator
Station Type Date Time Source
KPSP METAR 2021/03/04 23:53 UTC NOAA

KPSP 042353Z 08005KT 10SM CLR 23/01 A3019 RMK AO2 SLP224 T02330006 10239 20178 56009


Station Type Date Time Source
KPSP Decoded METAR 2021/03/04 23:53 UTC NOAA

PALM SPRINGS REGIONAL AIRPORT , CA, United States (KPSP) 33-50N 116-30W 135M
Mar 04, 2021 - 06:53 PM EST / 2021.03.04 2353 UTC
Wind: from the E (080 degrees) at 6 MPH (5 KT):0
Visibility: 10 mile(s):0
Sky conditions: clear
Temperature: 73.9 F (23.3 C)
Dew Point: 33.1 F (0.6 C)
Relative Humidity: 22%
Pressure (altimeter): 30.19 in. Hg (1022 hPa)
Pressure tendency: 0.03 inches (0.9 hPa) lower than three hours ago
ob: KPSP 042353Z 08005KT 10SM CLR 23/01 A3019 RMK AO2 SLP224 T02330006 10239 20178 56009
cycle: 0

Station Type Date Time Source
KPSP TAF 2021/03/04 18:22 UTC NOAA

TAF KPSP 041720Z 0418/0518 VRB05KT P6SM SKC

Example: see airport list